Impacts TAF Board INFO
FOR SITUATIONAL AWARENESS. NOT TO BE USED FOR FLIGHT PLANNING PURPOSES.
IDs:

KBWI - Baltimore-Washington, MD, US

Issued at 2340 UTC 21 Nov 2017
Updated at 0327 UTC 22 Nov 2017
Potential Impact None Slight Moderate High
Time<<23/04Z 23/05Z 23/06Z 23/07Z 23/08Z 23/09Z 23/10Z 23/11Z 23/12Z 23/13Z 23/14Z 23/15Z 23/16Z
Type PRVL PRVL
VIS >6 >6
CIG -- --
Cover SKC SKC
FltCat VFR VFR
WX -- --
WDir 350 350
WSpd 8 8
WGst -- --

Raw TAF
KBWI 212340Z 2200/2306 VRB03KT P6SM SCT250
  FM220200 20007KT P6SM BKN250
  FM220800 24006KT P6SM -RA BKN045
  FM220900 25006KT P6SM -RA BKN020
  FM221100 29006KT P6SM BKN035
  FM221400 31015G30KT P6SM BKN060
  FM230200 35008KT P6SM SKC


METAR Board
Radar Display
Forecast Discussion

FOR SITUATIONAL AWARENESS. NOT TO BE USED FOR FLIGHT PLANNING PURPOSES.